Jacksonville NAS, FL

10:09 AM EDT on March 29, 2017 (GMT -0400)
Jacksonville Naval Air Station | | Change Station
Active Advisory: Dense Fog Advisory

Elev 20 ft 30.23 °N, 81.68 °W | Updated 16 minutes ago

Clear
Clear
70 °F
Feels Like 70 °F
N
0
Wind Variable Wind from North

Today
High -- | Low -- °F
--% Chance of Precip.
Yesterday
High -- | Low -- °F
Precip. -- in
Pressure 30.04 in
Visibility 10.0 miles
Clouds Few 25000 ft
Dew Point 62 °F
Humidity 76%
Rainfall 0.00 in
Snow Depth Not available.
7:19 AM 7:43 PM
Waxing Crescent, 3% visible
METAR KNIP 291353Z 00000KT 10SM FEW250 21/17 A3005 RMK AO2 SLP170 T02110167
Pressure 30.04 in
Visibility 10.0 miles
Clouds Few 25000 ft
Dew Point 62 °F
Humidity 76%
Rainfall 0.00 in
Snow Depth Not available.
7:19 AM 7:43 PM
Waxing Crescent, 3% visible
METAR KNIP 291353Z 00000KT 10SM FEW250 21/17 A3005 RMK AO2 SLP170 T02110167

Get Your Daily Forecast Email!

Thanks for signing up!

Be on the lookout for a verification email in your inbox.

You'll start receiving severe weather alerts in your inbox..

×

10-Day Weather Forecast

Almanac

Astronomy

Mar. 29, 2017 Rise Set
Actual Time
Civil Twilight
Nautical Twilight
Astronomical Twilight
Moon
Length of Visible Light
Length of Day
Tomorrow will be .
, % of the Moon is Illuminated

Today's Extremes

State Highs State Lows

Community

WunderPhotos

Upload Photos

1,962,540 photos uploaded!

WunderBlog® & News

Nearby

Air Quality

  Air Quality AQ Index Pollutant
Not available.

Snow Depth

Station Depth Elevation

Earthquake Activity

City Distance Mag. Time & Date
Minimum magnitude displayed is 2.5.

Earthquake Activity

City Distance Mag. Time & Date
Minimum magnitude displayed is 2.5.

Coastal Water Temperatures

Place Temperature

Stations

Nearby Weather Stations

Station Location Temp. Windchill Dew Point Humidity Wind Precip. Elev Updated Type
                   

Watches & Warnings

Dense Fog Advisory
Issued: 6:15 AM EDT Mar. 29, 2017 – National Weather Service

... Dense fog advisory in effect until 11 am EDT this morning...

The National Weather Service in Jacksonville has issued a dense
fog advisory, which is in effect until 11 am EDT this morning.

* Visibility... less than a quarter mile.

* Impacts... dangerous driving conditions especially where fog
combines with smoke from recent wildfire activity.

Precautionary/preparedness actions...

A dense fog advisory means visibilities will frequently be
reduced to one quarter mile or less. If driving, slow down, use
your low beam headlights, and leave plenty of distance ahead of
you.